createdAt,value
2018-09-19T00:03:58.653Z,100959.25
2018-09-19T00:08:41.929Z,100957.50
2018-09-19T00:13:25.530Z,100964.44
2018-09-19T00:18:10.040Z,100965.17
2018-09-19T00:22:53.769Z,100965.83
2018-09-19T00:27:37.223Z,100957.76
2018-09-19T00:32:23.962Z,100951.13
2018-09-19T00:37:07.384Z,100952.81
2018-09-19T00:41:51.908Z,100957.45
2018-09-19T00:46:35.781Z,100954.31
2018-09-19T00:51:19.491Z,100952.04
2018-09-19T00:56:02.858Z,100947.03
2018-09-19T01:00:47.279Z,100951.12
2018-09-19T01:05:30.659Z,100944.91
2018-09-19T01:10:14.094Z,100946.95
2018-09-19T01:14:57.466Z,100948.08
2018-09-19T01:19:40.875Z,100941.48
2018-09-19T01:24:24.323Z,100938.90
2018-09-19T01:29:07.770Z,100935.45
2018-09-19T01:33:52.406Z,100937.95
2018-09-19T01:38:35.743Z,100936.61
2018-09-19T01:43:19.662Z,100936.85
2018-09-19T01:48:03.060Z,100935.47
2018-09-19T01:52:46.737Z,100937.39
2018-09-19T01:57:31.098Z,100942.25
2018-09-19T02:02:14.545Z,100941.09
2018-09-19T02:06:57.859Z,100940.12
2018-09-19T02:11:42.884Z,100943.08
2018-09-19T02:16:26.359Z,100944.30
2018-09-19T02:21:09.889Z,100945.52
2018-09-19T02:25:53.326Z,100944.03
2018-09-19T02:30:36.994Z,100944.84
2018-09-19T02:35:20.446Z,100949.86
2018-09-19T02:40:03.906Z,100957.17
2018-09-19T02:44:47.407Z,100955.16
2018-09-19T02:49:31.026Z,100945.16
2018-09-19T02:54:14.206Z,100953.90
2018-09-19T02:58:57.475Z,100950.44
2018-09-19T03:03:42.032Z,100961.36
2018-09-19T03:08:25.511Z,100960.66
2018-09-19T03:13:09.096Z,100955.30
2018-09-19T03:17:52.825Z,100956.39
2018-09-19T03:22:36.378Z,100959.69
2018-09-19T03:27:19.806Z,100958.38
2018-09-19T03:32:03.361Z,100959.58
2018-09-19T03:36:46.812Z,100957.11
2018-09-19T03:41:30.245Z,100964.03
2018-09-19T03:46:13.714Z,100961.97
2018-09-19T03:50:57.233Z,100959.86
2018-09-19T03:55:40.793Z,100962.09
2018-09-19T04:00:24.253Z,100967.16
2018-09-19T04:05:07.618Z,100964.41
2018-09-19T04:09:51.079Z,100961.66
2018-09-19T04:14:34.675Z,100965.80
2018-09-19T04:19:18.392Z,100967.82
2018-09-19T04:24:01.877Z,100981.53
2018-09-19T04:28:45.288Z,100985.44
2018-09-19T04:33:28.790Z,100978.86
2018-09-19T04:38:12.149Z,100984.16
2018-09-19T04:42:55.517Z,100986.90
2018-09-19T04:47:46.111Z,100988.22
2018-09-19T04:52:34.679Z,101002.45
2018-09-19T04:57:18.111Z,101006.02
2018-09-19T05:02:01.706Z,101002.47
2018-09-19T05:06:45.109Z,101011.73
2018-09-19T05:11:28.746Z,101012.88
2018-09-19T05:16:12.336Z,101017.72
2018-09-19T05:20:55.810Z,101012.29
2018-09-19T05:25:39.709Z,101020.61
2018-09-19T05:30:23.066Z,101029.27
2018-09-19T05:35:06.369Z,101029.08
2018-09-19T05:39:49.885Z,101020.79
2018-09-19T05:44:33.147Z,101026.23
2018-09-19T05:49:17.448Z,101026.15
2018-09-19T05:54:00.886Z,101033.20
2018-09-19T05:58:44.307Z,101031.48
2018-09-19T06:03:28.972Z,101039.63
2018-09-19T06:08:12.377Z,101042.36
2018-09-19T06:12:56.047Z,101033.64
2018-09-19T06:17:39.404Z,101036.02
2018-09-19T06:22:23.026Z,101040.86
2018-09-19T06:27:06.629Z,101042.97
2018-09-19T06:31:53.079Z,101049.06
2018-09-19T06:36:37.074Z,101048.07
2018-09-19T06:41:22.306Z,101044.86
2018-09-19T06:46:05.641Z,101048.86
2018-09-19T06:50:52.648Z,101051.89
2018-09-19T06:55:36.043Z,101057.58
2018-09-19T07:00:23.573Z,101045.02
2018-09-19T07:05:07.185Z,101047.52
2018-09-19T07:09:51.681Z,101051.03
2018-09-19T07:14:35.102Z,101047.07
2018-09-19T07:19:18.478Z,101050.33
2018-09-19T07:24:02.039Z,101055.23
2018-09-19T07:28:45.922Z,101047.91
2018-09-19T07:33:29.242Z,101042.65
2018-09-19T07:38:12.630Z,101038.73
2018-09-19T07:42:57.108Z,101037.73
2018-09-19T07:47:40.608Z,101052.00
2018-09-19T07:52:24.042Z,101046.73
2018-09-19T07:57:07.477Z,101051.21
2018-09-19T08:01:50.984Z,101041.59
2018-09-19T08:06:34.229Z,101040.93
2018-09-19T08:11:17.771Z,101044.61
2018-09-19T08:16:01.062Z,101040.55
2018-09-19T08:20:48.145Z,101049.80
2018-09-19T08:25:31.373Z,101054.55
2018-09-19T08:30:14.894Z,101044.98
2018-09-19T08:34:58.347Z,101050.58
2018-09-19T08:39:41.754Z,101040.80
2018-09-19T08:44:25.290Z,101043.24
2018-09-19T08:49:12.362Z,101036.84
2018-09-19T08:53:55.818Z,101039.23
2018-09-19T08:58:39.324Z,101042.21
2018-09-19T09:03:23.033Z,101045.47
2018-09-19T09:08:06.614Z,101025.20
2018-09-19T09:12:51.113Z,101028.61
2018-09-19T09:17:34.451Z,101019.16
2018-09-19T09:22:21.172Z,101036.63
2018-09-19T09:27:04.534Z,101029.77
2018-09-19T09:31:52.100Z,101019.67
2018-09-19T09:36:35.599Z,101016.37
2018-09-19T09:41:20.199Z,101018.92
2018-09-19T09:46:03.616Z,101008.59
2018-09-19T09:50:50.313Z,101018.68
2018-09-19T09:55:33.713Z,101006.90
2018-09-19T10:00:51.010Z,101015.34
2018-09-19T10:05:34.306Z,100984.88
2018-09-19T10:10:20.658Z,100996.36
2018-09-19T10:15:04.111Z,100993.41
2018-09-19T10:19:47.786Z,100978.23
2018-09-19T10:24:31.047Z,100978.59
2018-09-19T10:29:14.603Z,100979.22
2018-09-19T10:33:58.098Z,100976.09
2018-09-19T10:38:42.554Z,100976.30
2018-09-19T10:43:26.058Z,100964.73
2018-09-19T10:48:16.558Z,100967.88
2018-09-19T10:52:59.965Z,100967.44
2018-09-19T10:57:43.382Z,100969.23
2018-09-19T11:02:27.031Z,100962.87
2018-09-19T11:07:10.412Z,100952.27
2018-09-19T11:11:57.388Z,100935.13
2018-09-19T11:16:40.842Z,100944.11
2018-09-19T11:21:26.269Z,100944.31
2018-09-19T11:26:09.799Z,100942.09
2018-09-19T11:30:55.456Z,100937.28
2018-09-19T11:35:38.782Z,100928.97
2018-09-19T11:40:22.423Z,100926.20
2018-09-19T11:45:05.939Z,100919.88
2018-09-19T11:49:49.373Z,100918.22
2018-09-19T11:54:32.982Z,100917.97
2018-09-19T11:59:16.523Z,100914.52
2018-09-19T12:03:59.956Z,100921.20
2018-09-19T12:08:43.548Z,100919.47
2018-09-19T12:13:27.045Z,100921.45
2018-09-19T12:18:10.435Z,100903.57
2018-09-19T12:22:53.887Z,100903.30
2018-09-19T12:27:39.850Z,100899.41
2018-09-19T12:32:36.425Z,100907.06
2018-09-19T12:37:20.214Z,100902.86
2018-09-19T12:42:03.649Z,100900.21
2018-09-19T12:46:47.269Z,100904.95
2018-09-19T12:51:30.541Z,100894.13
2018-09-19T12:56:13.859Z,100897.77
2018-09-19T13:01:00.434Z,100902.17
2018-09-19T13:05:51.106Z,100891.66
2018-09-19T13:10:37.837Z,100903.62
2018-09-19T13:15:21.221Z,100899.36
2018-09-19T13:20:11.036Z,100903.30
2018-09-19T13:24:54.240Z,100893.86
2018-09-19T13:29:37.921Z,100894.34
2018-09-19T13:34:21.379Z,100904.98
2018-09-19T13:39:07.931Z,100894.38
2018-09-19T13:43:51.429Z,100894.29
2018-09-19T13:48:35.036Z,100903.57
2018-09-19T13:53:21.867Z,100906.27
2018-09-19T13:58:06.335Z,100895.98
2018-09-19T14:02:49.889Z,100898.18
2018-09-19T14:07:36.956Z,100889.81
2018-09-19T14:12:20.513Z,100895.66
2018-09-19T14:17:03.740Z,100892.11
2018-09-19T14:21:47.353Z,100892.11
2018-09-19T14:26:30.725Z,100892.07
2018-09-19T14:31:17.972Z,100888.11
2018-09-19T14:36:01.308Z,100877.26
2018-09-19T14:40:48.511Z,100878.80
2018-09-19T14:45:31.681Z,100880.98
2018-09-19T14:50:15.919Z,100870.75
2018-09-19T14:54:59.603Z,100873.69
2018-09-19T14:59:43.795Z,100865.64
2018-09-19T15:04:27.178Z,100863.77
2018-09-19T15:09:13.774Z,100873.56
2018-09-19T15:13:57.157Z,100865.75
2018-09-19T15:18:40.838Z,100869.24
2018-09-19T15:23:24.278Z,100871.36
2018-09-19T15:28:11.702Z,100873.94
2018-09-19T15:32:55.131Z,100864.30
2018-09-19T15:37:42.355Z,100871.88
2018-09-19T15:42:26.101Z,100877.27
2018-09-19T15:47:09.413Z,100884.23
2018-09-19T15:51:52.918Z,100877.41
2018-09-19T15:56:36.542Z,100867.67
2018-09-19T16:01:20.939Z,100871.02
2018-09-19T16:06:05.224Z,100870.94
2018-09-19T16:10:49.698Z,100864.69
2018-09-19T16:15:33.135Z,100870.55
2018-09-19T16:20:17.733Z,100869.38
2018-09-19T16:25:01.147Z,100872.88
2018-09-19T16:29:44.877Z,100869.69
2018-09-19T16:34:28.271Z,100873.59
2018-09-19T16:39:13.348Z,100869.41
2018-09-19T16:43:56.851Z,100875.02
2018-09-19T16:48:40.458Z,100878.69
2018-09-19T16:53:24.027Z,100887.20
2018-09-19T16:58:07.581Z,100893.10
2018-09-19T17:02:51.081Z,100897.57
2018-09-19T17:07:43.620Z,100898.80
2018-09-19T17:12:27.093Z,100903.20
2018-09-19T17:17:11.312Z,100903.39
2018-09-19T17:21:54.711Z,100904.97
2018-09-19T17:26:38.169Z,100907.55
2018-09-19T17:31:23.750Z,100905.81
2018-09-19T17:36:09.161Z,100904.80
2018-09-19T17:40:53.642Z,100912.54
2018-09-19T17:45:36.802Z,100922.69
2018-09-19T17:50:20.376Z,100920.80
2018-09-19T17:55:04.064Z,100927.40
2018-09-19T17:59:48.286Z,100924.13
2018-09-19T18:04:31.528Z,100927.27
2018-09-19T18:09:15.029Z,100929.36
2018-09-19T18:13:58.493Z,100929.41
2018-09-19T18:18:42.150Z,100928.97
2018-09-19T18:23:25.488Z,100929.13
2018-09-19T18:28:12.664Z,100923.52
2018-09-19T18:32:56.149Z,100933.48
2018-09-19T18:37:39.787Z,100937.92
2018-09-19T18:42:23.348Z,100924.08
2018-09-19T18:47:06.961Z,100932.95
2018-09-19T18:51:50.374Z,100931.14
2018-09-19T18:56:33.804Z,100923.01
2018-09-19T19:01:18.253Z,100921.59
2018-09-19T19:06:02.112Z,100933.62
2018-09-19T19:10:46.586Z,100924.18
2018-09-19T19:15:31.066Z,100925.31
2018-09-19T19:20:15.537Z,100923.22
2018-09-19T19:26:28.533Z,100924.65
2018-09-19T19:31:14.240Z,100923.41
2018-09-19T19:35:58.321Z,100919.04
2018-09-19T19:40:42.133Z,100913.30
2018-09-19T19:45:25.561Z,100909.89
2018-09-19T19:50:10.918Z,100915.13
2018-09-19T19:54:54.465Z,100921.03
2018-09-19T19:59:38.129Z,100920.55
2018-09-19T20:04:22.403Z,100920.84
2018-09-19T20:09:09.381Z,100918.45
2018-09-19T20:13:52.711Z,100921.70
2018-09-19T20:18:37.235Z,100925.91
2018-09-19T20:23:20.742Z,100916.94
2018-09-19T20:28:05.923Z,100914.94
2018-09-19T20:32:49.534Z,100912.37
2018-09-19T20:37:33.145Z,100913.50
2018-09-19T20:42:16.656Z,100903.95
2018-09-19T20:47:01.339Z,100906.36
2018-09-19T20:51:44.680Z,100913.69
2018-09-19T20:56:27.979Z,100913.86
2018-09-19T21:01:11.322Z,100914.83
2018-09-19T21:05:54.684Z,100907.80
2018-09-19T21:10:39.241Z,100898.34
2018-09-19T21:15:23.235Z,100899.39
2018-09-19T21:20:11.375Z,100902.66
2018-09-19T21:24:54.790Z,100901.00
2018-09-19T21:29:38.435Z,100897.05
2018-09-19T21:34:21.864Z,100897.13
2018-09-19T21:39:09.577Z,100901.61
2018-09-19T21:43:53.025Z,100895.24
2018-09-19T21:48:37.515Z,100886.28
2018-09-19T21:53:20.936Z,100887.89
2018-09-19T21:58:05.355Z,100879.80
2018-09-19T22:02:48.682Z,100877.70
2018-09-19T22:07:32.705Z,100875.03
2018-09-19T22:12:16.577Z,100870.70
2018-09-19T22:17:01.122Z,100869.59
2018-09-19T22:21:44.538Z,100876.39
2018-09-19T22:26:29.712Z,100878.72
2018-09-19T22:31:13.157Z,100880.27
2018-09-19T22:35:56.703Z,100883.23
2018-09-19T22:40:43.671Z,100878.19
2018-09-19T22:45:27.135Z,100881.79
2018-09-19T22:50:11.769Z,100890.00
2018-09-19T22:54:55.253Z,100885.09
2018-09-19T22:59:39.993Z,100880.81
2018-09-19T23:04:23.602Z,100882.89
2018-09-19T23:09:08.828Z,100883.52
2018-09-19T23:13:52.185Z,100875.98
2018-09-19T23:18:36.370Z,100881.33
2018-09-19T23:23:19.667Z,100871.52
2018-09-19T23:28:06.682Z,100866.06
2018-09-19T23:32:50.318Z,100866.75
2018-09-19T23:37:33.894Z,100866.14
2018-09-19T23:42:17.282Z,100865.43
2018-09-19T23:47:02.129Z,100871.45
2018-09-19T23:51:45.459Z,100861.31
2018-09-19T23:56:32.706Z,100862.70
